createdAt,value
2019-03-15T00:02:03.415Z,3.77
2019-03-15T00:04:39.953Z,4.97
2019-03-15T00:07:22.445Z,4.80
2019-03-15T00:10:12.963Z,4.73
2019-03-15T00:12:47.338Z,4.63
2019-03-15T00:15:37.424Z,4.30
2019-03-15T00:18:11.365Z,4.20
2019-03-15T00:20:45.040Z,5.77
2019-03-15T00:23:28.173Z,4.60
2019-03-15T00:26:13.564Z,4.33
2019-03-15T00:29:12.420Z,4.67
2019-03-15T00:31:51.562Z,4.67
2019-03-15T00:34:34.544Z,4.93
2019-03-15T00:37:17.509Z,4.67
2019-03-15T00:39:59.472Z,4.80
2019-03-15T00:42:34.540Z,4.57
2019-03-15T00:45:08.699Z,4.53
2019-03-15T00:48:01.667Z,4.73
2019-03-15T00:50:34.769Z,3.67
2019-03-15T00:53:07.957Z,5.37
2019-03-15T00:55:41.034Z,4.17
2019-03-15T00:58:25.487Z,5.40
2019-03-15T01:01:10.499Z,4.73
2019-03-15T01:03:43.382Z,4.63
2019-03-15T01:06:17.128Z,4.70
2019-03-15T01:08:50.738Z,4.60
2019-03-15T01:11:24.124Z,5.10
2019-03-15T01:13:57.599Z,4.80
2019-03-15T01:16:40.162Z,4.83
2019-03-15T01:19:22.704Z,4.60
2019-03-15T01:21:56.615Z,5.00
2019-03-15T01:24:39.116Z,5.80
2019-03-15T01:27:13.086Z,5.17
2019-03-15T01:30:05.958Z,5.87
2019-03-15T01:32:50.865Z,5.60
2019-03-15T01:35:45.834Z,5.80
2019-03-15T01:38:19.065Z,5.63
2019-03-15T01:41:01.738Z,5.53
2019-03-15T01:43:44.454Z,5.60
2019-03-15T01:46:29.183Z,5.70
2019-03-15T01:49:11.521Z,5.37
2019-03-15T01:51:45.122Z,5.80
2019-03-15T01:54:18.754Z,5.50
2019-03-15T01:56:52.099Z,7.23
2019-03-15T01:59:25.425Z,6.20
2019-03-15T02:01:59.384Z,6.37
2019-03-15T02:04:34.026Z,7.17
2019-03-15T02:07:07.692Z,5.83
2019-03-15T02:09:41.274Z,5.20
2019-03-15T02:12:17.005Z,4.50
2019-03-15T02:14:51.477Z,5.33
2019-03-15T02:17:26.658Z,4.70
2019-03-15T02:20:01.467Z,5.33
2019-03-15T02:22:35.579Z,5.27
2019-03-15T02:25:08.989Z,5.43
2019-03-15T02:27:51.771Z,6.10
2019-03-15T02:30:33.817Z,5.13
2019-03-15T02:33:06.728Z,4.70
2019-03-15T02:35:40.775Z,4.80
2019-03-15T02:38:15.639Z,4.73
2019-03-15T02:40:49.322Z,5.43
2019-03-15T02:43:22.958Z,5.77
2019-03-15T02:45:56.199Z,4.93
2019-03-15T02:48:41.146Z,5.13
2019-03-15T02:51:19.677Z,5.70
2019-03-15T02:54:05.319Z,4.50
2019-03-15T02:56:47.367Z,5.63
2019-03-15T02:59:22.936Z,5.20
2019-03-15T03:01:56.424Z,5.10
2019-03-15T03:04:30.317Z,5.30
2019-03-15T03:07:12.929Z,5.67
2019-03-15T03:09:46.660Z,5.50
2019-03-15T03:12:31.678Z,5.90
2019-03-15T03:15:14.233Z,6.57
2019-03-15T03:17:53.352Z,6.13
2019-03-15T03:20:27.169Z,6.03
2019-03-15T03:23:00.719Z,5.73
2019-03-15T03:25:34.333Z,6.30
2019-03-15T03:28:07.843Z,7.03
2019-03-15T03:30:41.120Z,6.03
2019-03-15T03:33:23.193Z,5.33
2019-03-15T03:35:57.711Z,7.63
2019-03-15T03:38:39.865Z,5.97
2019-03-15T03:41:11.898Z,6.10
2019-03-15T03:43:45.287Z,6.77
2019-03-15T03:46:19.241Z,6.30
2019-03-15T03:49:04.253Z,6.07
2019-03-15T03:51:38.406Z,6.33
2019-03-15T03:54:30.443Z,7.10
2019-03-15T03:57:05.171Z,5.80
2019-03-15T03:59:51.917Z,5.40
2019-03-15T04:02:34.119Z,6.93
2019-03-15T04:05:07.769Z,5.53
2019-03-15T04:07:41.823Z,5.50
2019-03-15T04:10:24.004Z,5.63
2019-03-15T04:12:57.314Z,4.43
2019-03-15T04:15:30.921Z,5.13
2019-03-15T04:18:06.623Z,5.47
2019-03-15T04:20:39.212Z,4.30
2019-03-15T04:23:24.522Z,4.80
2019-03-15T04:26:12.880Z,5.10
2019-03-15T04:28:49.213Z,4.90
2019-03-15T04:31:23.196Z,4.90
2019-03-15T04:33:56.346Z,5.40
2019-03-15T04:36:29.645Z,4.80
2019-03-15T04:39:04.182Z,4.30
2019-03-15T04:41:39.586Z,5.43
2019-03-15T04:44:31.429Z,5.47
2019-03-15T04:47:04.893Z,4.47
2019-03-15T04:49:41.684Z,5.30
2019-03-15T04:52:17.229Z,4.63
2019-03-15T04:55:02.000Z,4.87
2019-03-15T04:57:47.198Z,4.60
2019-03-15T05:00:31.313Z,5.10
2019-03-15T05:03:06.999Z,4.43
2019-03-15T05:05:40.528Z,4.33
2019-03-15T05:08:14.006Z,4.20
2019-03-15T05:10:47.257Z,4.60
2019-03-15T05:13:21.195Z,4.93
2019-03-15T05:15:55.084Z,5.13
2019-03-15T05:18:43.792Z,5.03
2019-03-15T05:21:17.362Z,5.33
2019-03-15T05:23:51.160Z,5.93
2019-03-15T05:26:33.639Z,4.63
2019-03-15T05:29:07.379Z,5.17
2019-03-15T05:31:40.478Z,5.40
2019-03-15T05:34:14.015Z,5.00
2019-03-15T05:36:47.124Z,4.80
2019-03-15T05:39:29.763Z,5.27
2019-03-15T05:42:12.276Z,5.47
2019-03-15T05:44:45.365Z,4.77
2019-03-15T05:47:19.329Z,4.90
2019-03-15T05:49:52.680Z,5.60
2019-03-15T05:52:25.955Z,6.27
2019-03-15T05:54:59.389Z,6.20
2019-03-15T05:57:32.840Z,4.77
2019-03-15T06:00:15.022Z,6.10
2019-03-15T06:02:50.198Z,5.80
2019-03-15T06:05:23.362Z,6.40
2019-03-15T06:07:56.616Z,5.87
2019-03-15T06:10:38.641Z,5.63
2019-03-15T06:13:13.607Z,5.60
2019-03-15T06:15:47.040Z,6.10
2019-03-15T06:18:20.103Z,5.27
2019-03-15T06:20:55.132Z,5.13
2019-03-15T06:23:37.602Z,5.77
2019-03-15T06:26:12.694Z,5.53
2019-03-15T06:28:47.152Z,5.63
2019-03-15T06:31:21.722Z,5.60
2019-03-15T06:33:54.828Z,5.00
2019-03-15T06:36:38.106Z,5.20
2019-03-15T06:39:13.373Z,5.07
2019-03-15T06:41:46.766Z,5.47
2019-03-15T06:44:20.230Z,5.50
2019-03-15T06:46:53.484Z,5.17
2019-03-15T06:49:27.069Z,5.53
2019-03-15T06:52:01.258Z,4.87
2019-03-15T06:54:35.131Z,5.00
2019-03-15T06:57:20.727Z,5.63
2019-03-15T06:59:55.591Z,4.60
2019-03-15T07:02:29.018Z,4.57
2019-03-15T07:05:02.105Z,4.67
2019-03-15T07:07:36.331Z,4.70
2019-03-15T07:10:09.542Z,5.23
2019-03-15T07:12:42.762Z,4.07
2019-03-15T07:15:16.981Z,4.63
2019-03-15T07:17:50.889Z,5.37
2019-03-15T07:20:23.922Z,5.50
2019-03-15T07:22:57.725Z,5.67
2019-03-15T07:25:31.497Z,5.13
2019-03-15T07:28:21.689Z,4.10
2019-03-15T07:30:55.546Z,5.00
2019-03-15T07:33:29.384Z,4.33
2019-03-15T07:36:12.160Z,4.07
2019-03-15T07:38:54.500Z,4.93
2019-03-15T07:41:29.453Z,4.67
2019-03-15T07:44:04.816Z,4.53
2019-03-15T07:46:39.356Z,5.37
2019-03-15T07:49:21.828Z,5.10
2019-03-15T07:52:04.273Z,4.73
2019-03-15T07:54:38.708Z,5.57
2019-03-15T07:57:13.789Z,5.73
2019-03-15T07:59:55.759Z,4.90
2019-03-15T08:02:29.343Z,6.30
2019-03-15T08:05:02.964Z,5.30
2019-03-15T08:07:44.386Z,5.30
2019-03-15T08:10:11.663Z,4.80
2019-03-15T08:12:45.416Z,5.40
2019-03-15T08:15:19.446Z,4.70
2019-03-15T08:17:52.928Z,5.47
2019-03-15T08:20:26.126Z,5.23
2019-03-15T08:22:59.356Z,5.43
2019-03-15T08:25:33.643Z,5.40
2019-03-15T08:28:07.300Z,4.90
2019-03-15T08:30:41.462Z,5.03
2019-03-15T08:33:30.419Z,5.37
2019-03-15T08:36:04.161Z,5.20
2019-03-15T08:38:47.278Z,5.23
2019-03-15T08:41:13.553Z,5.17
2019-03-15T08:43:47.175Z,5.00
2019-03-15T08:46:21.452Z,4.83
2019-03-15T08:49:04.448Z,6.10
2019-03-15T08:51:46.583Z,5.10
2019-03-15T08:54:20.426Z,5.17
2019-03-15T08:56:53.753Z,5.10
2019-03-15T08:59:27.534Z,4.97
2019-03-15T09:02:01.049Z,4.67
2019-03-15T09:04:36.057Z,5.00
2019-03-15T09:07:09.768Z,4.73
2019-03-15T09:09:44.088Z,4.83
2019-03-15T09:12:27.200Z,5.70
2019-03-15T09:15:02.078Z,5.37
2019-03-15T09:17:45.056Z,5.07
2019-03-15T09:20:18.522Z,5.80
2019-03-15T09:22:51.734Z,6.00
2019-03-15T09:25:27.397Z,5.73
2019-03-15T09:28:11.080Z,6.87
2019-03-15T09:30:44.957Z,7.10
2019-03-15T09:33:18.810Z,10.07
2019-03-15T09:35:52.129Z,6.80
2019-03-15T09:38:26.469Z,7.50
2019-03-15T09:41:09.848Z,7.60
2019-03-15T09:43:45.550Z,7.13
2019-03-15T09:46:20.698Z,8.10
2019-03-15T09:48:54.003Z,8.13
2019-03-15T09:51:28.307Z,9.27
2019-03-15T09:54:11.706Z,8.70
2019-03-15T09:56:47.050Z,8.00
2019-03-15T09:59:30.821Z,9.10
2019-03-15T10:02:07.845Z,9.43
2019-03-15T10:04:41.612Z,7.90
2019-03-15T10:07:37.859Z,7.80
2019-03-15T10:10:12.953Z,7.80
2019-03-15T10:12:37.036Z,7.57
2019-03-15T10:15:11.692Z,7.37
2019-03-15T10:17:54.240Z,8.60
2019-03-15T10:20:28.593Z,8.73
2019-03-15T10:23:06.115Z,8.40
2019-03-15T10:25:46.934Z,7.73
2019-03-15T10:28:13.617Z,9.23
2019-03-15T10:30:56.471Z,9.67
2019-03-15T10:33:28.972Z,8.33
2019-03-15T10:36:02.808Z,8.87
2019-03-15T10:38:36.327Z,9.00
2019-03-15T10:41:11.324Z,8.53
2019-03-15T10:43:45.131Z,8.73
2019-03-15T10:46:17.674Z,9.53
2019-03-15T10:48:49.977Z,9.80
2019-03-15T10:51:33.777Z,9.60
2019-03-15T10:54:07.672Z,9.87
2019-03-15T10:56:41.048Z,11.50
2019-03-15T10:59:16.525Z,11.50
2019-03-15T11:01:49.913Z,10.90
2019-03-15T11:04:23.730Z,11.67
2019-03-15T11:06:57.713Z,12.50
2019-03-15T11:09:43.148Z,13.50
2019-03-15T11:12:17.419Z,12.50
2019-03-15T11:14:51.434Z,16.27
2019-03-15T11:17:34.162Z,15.70
2019-03-15T11:20:10.251Z,16.20
2019-03-15T11:22:44.112Z,16.87
2019-03-15T11:25:18.127Z,17.23
2019-03-15T11:27:52.806Z,16.10
2019-03-15T11:30:27.037Z,17.00
2019-03-15T11:33:00.951Z,16.70
2019-03-15T11:35:44.584Z,18.40
2019-03-15T11:38:18.057Z,18.20
2019-03-15T11:40:52.273Z,18.57
2019-03-15T11:43:25.961Z,17.77
2019-03-15T11:45:59.836Z,17.10
2019-03-15T11:48:42.493Z,18.93
2019-03-15T11:51:16.157Z,17.10
2019-03-15T11:53:59.674Z,15.50
2019-03-15T11:56:43.780Z,14.87
2019-03-15T11:59:26.495Z,14.83
2019-03-15T12:02:10.765Z,13.50
2019-03-15T12:04:54.133Z,12.17
2019-03-15T12:07:37.027Z,13.07
2019-03-15T12:10:22.211Z,12.03
2019-03-15T12:12:56.726Z,12.07
2019-03-15T12:15:40.207Z,11.13
2019-03-15T12:18:13.551Z,11.00
2019-03-15T12:20:49.010Z,10.60
2019-03-15T12:23:30.799Z,11.07
2019-03-15T12:26:04.624Z,10.87
2019-03-15T12:28:39.288Z,9.77
2019-03-15T12:31:22.810Z,10.00
2019-03-15T12:33:56.529Z,9.87
2019-03-15T12:36:30.427Z,10.40
2019-03-15T12:39:04.039Z,9.53
2019-03-15T12:41:38.107Z,10.03
2019-03-15T12:44:29.178Z,10.00
2019-03-15T12:47:06.058Z,9.80
2019-03-15T12:49:41.230Z,9.40
2019-03-15T12:52:15.095Z,9.20
2019-03-15T12:54:57.770Z,8.83
2019-03-15T12:57:36.115Z,8.67
2019-03-15T13:00:20.595Z,9.07
2019-03-15T13:02:56.309Z,8.63
2019-03-15T13:05:44.985Z,7.23
2019-03-15T13:08:17.987Z,7.13
2019-03-15T13:11:03.762Z,6.27
2019-03-15T13:13:40.220Z,7.10
2019-03-15T13:16:14.446Z,6.40
2019-03-15T13:18:47.173Z,6.60
2019-03-15T13:21:21.065Z,6.43
2019-03-15T13:23:55.897Z,6.33
2019-03-15T13:26:30.020Z,5.37
2019-03-15T13:29:03.669Z,4.90
2019-03-15T13:31:37.694Z,4.43
2019-03-15T13:34:25.848Z,3.67
2019-03-15T13:36:59.635Z,3.13
2019-03-15T13:39:33.509Z,3.13
2019-03-15T13:42:07.259Z,2.43
2019-03-15T13:47:28.651Z,1.83
2019-03-15T13:50:11.860Z,1.70
2019-03-15T13:52:54.147Z,2.10
2019-03-15T13:55:28.216Z,1.87
2019-03-15T13:58:13.073Z,1.90
2019-03-15T14:00:46.910Z,1.80
2019-03-15T14:03:20.441Z,1.90
2019-03-15T14:05:53.820Z,2.17
2019-03-15T14:08:27.071Z,1.60
2019-03-15T14:11:10.530Z,1.80
2019-03-15T14:13:44.053Z,2.27
2019-03-15T14:16:18.119Z,1.73
2019-03-15T14:18:50.560Z,1.60
2019-03-15T14:21:24.210Z,1.70
2019-03-15T14:23:58.465Z,1.80
2019-03-15T14:26:32.006Z,1.90
2019-03-15T14:29:06.391Z,2.20
2019-03-15T14:31:39.767Z,1.77
2019-03-15T14:34:22.571Z,2.27
2019-03-15T14:37:05.239Z,2.20
2019-03-15T14:39:48.351Z,2.00
2019-03-15T14:42:30.926Z,2.17
2019-03-15T14:45:16.694Z,1.90
2019-03-15T14:47:59.216Z,2.20
2019-03-15T14:50:33.228Z,1.83
2019-03-15T14:53:16.641Z,1.93
2019-03-15T14:55:51.029Z,1.53
2019-03-15T14:58:24.907Z,1.63
2019-03-15T15:01:07.479Z,1.70
2019-03-15T15:03:41.431Z,1.57
2019-03-15T15:06:23.890Z,1.43
2019-03-15T15:08:58.910Z,2.03
2019-03-15T15:11:32.734Z,1.50
2019-03-15T15:14:06.090Z,1.60
2019-03-15T15:16:38.233Z,1.60
2019-03-15T15:19:13.761Z,1.33
2019-03-15T15:21:57.143Z,1.57
2019-03-15T15:24:29.758Z,1.87
2019-03-15T15:27:02.982Z,1.40
2019-03-15T15:29:37.839Z,1.57
2019-03-15T15:32:20.326Z,1.50
2019-03-15T15:34:54.854Z,1.60
2019-03-15T15:37:29.005Z,2.13
2019-03-15T15:40:02.764Z,1.90
2019-03-15T15:42:45.275Z,1.70
2019-03-15T15:45:19.143Z,1.90
2019-03-15T15:47:53.065Z,1.60
2019-03-15T15:50:37.216Z,1.63
2019-03-15T15:53:11.573Z,1.73
2019-03-15T15:55:46.007Z,1.70
2019-03-15T15:58:24.133Z,1.70
2019-03-15T16:00:58.330Z,1.40
2019-03-15T16:03:47.360Z,1.93
2019-03-15T16:06:21.895Z,1.57
2019-03-15T16:08:55.134Z,1.73
2019-03-15T16:11:28.030Z,1.80
2019-03-15T16:14:11.503Z,1.70
2019-03-15T16:16:46.256Z,1.57
2019-03-15T16:19:18.390Z,1.70
2019-03-15T16:22:00.818Z,1.70
2019-03-15T16:24:44.118Z,2.10
2019-03-15T16:27:27.464Z,1.77
2019-03-15T16:30:01.608Z,2.00
2019-03-15T16:32:35.549Z,1.60
2019-03-15T16:35:18.903Z,1.60
2019-03-15T16:37:52.036Z,1.90
2019-03-15T16:40:35.342Z,1.67
2019-03-15T16:43:07.505Z,2.23
2019-03-15T16:45:41.650Z,2.03
2019-03-15T16:48:15.605Z,2.03
2019-03-15T16:51:01.446Z,2.10
2019-03-15T16:53:35.433Z,2.20
2019-03-15T16:56:09.369Z,2.20
2019-03-15T16:58:51.934Z,2.00
2019-03-15T17:01:35.486Z,2.43
2019-03-15T17:04:10.679Z,2.17
2019-03-15T17:06:53.824Z,2.10
2019-03-15T17:09:28.818Z,1.90
2019-03-15T17:12:03.063Z,2.00
2019-03-15T17:14:36.649Z,2.27
2019-03-15T17:17:10.630Z,1.90
2019-03-15T17:19:44.101Z,2.10
2019-03-15T17:22:18.538Z,2.67
2019-03-15T17:24:53.388Z,2.13
2019-03-15T17:27:26.204Z,2.43
2019-03-15T17:30:00.659Z,2.07
2019-03-15T17:32:43.471Z,1.90
2019-03-15T17:35:27.347Z,3.23
2019-03-15T17:38:01.495Z,3.20
2019-03-15T17:40:35.342Z,2.33
2019-03-15T17:43:18.024Z,3.13
2019-03-15T17:45:50.222Z,2.93
2019-03-15T17:48:24.077Z,2.33
2019-03-15T17:51:07.212Z,2.77
2019-03-15T17:53:50.038Z,2.70
2019-03-15T17:56:24.888Z,2.27
2019-03-15T17:59:11.593Z,2.87
2019-03-15T18:01:33.460Z,2.23
2019-03-15T18:04:08.972Z,3.00
2019-03-15T18:06:51.995Z,2.33
2019-03-15T18:09:35.270Z,2.63
2019-03-15T18:12:10.475Z,2.30
2019-03-15T18:14:43.841Z,2.70
2019-03-15T18:17:18.539Z,2.70
2019-03-15T18:19:53.644Z,2.80
2019-03-15T18:22:30.090Z,2.20
2019-03-15T18:25:03.936Z,2.67
2019-03-15T18:27:36.810Z,2.40
2019-03-15T18:30:26.564Z,2.80
2019-03-15T18:32:59.631Z,2.80
2019-03-15T18:35:43.390Z,2.63
2019-03-15T18:38:26.056Z,2.90
2019-03-15T18:41:00.207Z,2.90
2019-03-15T18:43:32.862Z,3.13
2019-03-15T18:46:05.136Z,2.73
2019-03-15T18:48:40.189Z,2.80
2019-03-15T18:51:15.410Z,2.53
2019-03-15T18:53:50.161Z,3.00
2019-03-15T18:56:25.573Z,3.70
2019-03-15T18:58:59.974Z,3.17
2019-03-15T19:01:32.780Z,3.73
2019-03-15T19:04:08.491Z,3.67
2019-03-15T19:06:44.352Z,3.17
2019-03-15T19:09:20.871Z,2.80
2019-03-15T19:12:05.026Z,3.50
2019-03-15T19:14:40.883Z,3.40
2019-03-15T19:17:14.640Z,3.00
2019-03-15T19:19:52.981Z,3.67
2019-03-15T19:22:25.799Z,3.03
2019-03-15T19:25:00.719Z,3.50
2019-03-15T19:27:36.379Z,3.10
2019-03-15T19:30:20.183Z,3.13
2019-03-15T19:32:57.181Z,3.27
2019-03-15T19:35:30.068Z,3.83
2019-03-15T19:38:05.724Z,2.83
2019-03-15T19:40:40.723Z,3.07
2019-03-15T19:43:14.593Z,2.90
2019-03-15T19:45:48.608Z,3.07
2019-03-15T19:48:23.719Z,3.30
2019-03-15T19:50:58.388Z,3.80
2019-03-15T19:53:31.445Z,3.17
2019-03-15T19:56:14.888Z,3.70
2019-03-15T19:58:49.809Z,3.20
2019-03-15T20:01:23.770Z,4.13
2019-03-15T20:03:58.891Z,3.13
2019-03-15T20:06:32.639Z,3.63
2019-03-15T20:09:09.151Z,3.60
2019-03-15T20:11:43.255Z,2.80
2019-03-15T20:14:18.326Z,3.73
2019-03-15T20:16:54.420Z,3.70
2019-03-15T20:19:37.685Z,3.00
2019-03-15T20:22:13.422Z,3.90
2019-03-15T20:24:57.228Z,3.57
2019-03-15T20:27:40.858Z,3.77
2019-03-15T20:30:21.560Z,3.97
2019-03-15T20:33:01.587Z,3.20
2019-03-15T20:35:35.630Z,3.70
2019-03-15T20:38:18.543Z,3.47
2019-03-15T20:41:00.662Z,3.27
2019-03-15T20:43:35.131Z,3.13
2019-03-15T20:46:09.333Z,3.37
2019-03-15T20:48:43.486Z,3.73
2019-03-15T20:51:27.138Z,3.37
2019-03-15T20:54:00.446Z,3.80
2019-03-15T20:56:42.724Z,4.10
2019-03-15T20:59:18.210Z,3.37
2019-03-15T21:02:02.274Z,4.00
2019-03-15T21:04:36.468Z,4.17
2019-03-15T21:07:19.845Z,4.20
2019-03-15T21:09:56.799Z,3.60
2019-03-15T21:12:42.171Z,3.57
2019-03-15T21:15:16.036Z,3.83
2019-03-15T21:18:00.353Z,5.00
2019-03-15T21:20:36.443Z,3.83
2019-03-15T21:23:10.976Z,3.60
2019-03-15T21:25:55.029Z,3.80
2019-03-15T21:28:34.705Z,3.77
2019-03-15T21:34:23.770Z,3.97
2019-03-15T21:36:59.286Z,3.37
2019-03-15T21:39:35.255Z,3.90
2019-03-15T21:42:18.414Z,3.53
2019-03-15T21:45:01.260Z,5.00
2019-03-15T21:47:46.393Z,3.93
2019-03-15T21:50:20.102Z,4.23
2019-03-15T21:52:53.388Z,4.43
2019-03-15T21:55:28.884Z,4.20
2019-03-15T21:58:02.688Z,3.83
2019-03-15T22:00:36.169Z,4.77
2019-03-15T22:03:10.378Z,4.13
2019-03-15T22:05:47.892Z,4.30
2019-03-15T22:08:22.199Z,3.43
2019-03-15T22:11:05.591Z,3.20
2019-03-15T22:13:55.027Z,4.00
2019-03-15T22:16:29.195Z,3.90
2019-03-15T22:19:15.524Z,4.37
2019-03-15T22:22:01.642Z,4.13
2019-03-15T22:24:44.559Z,4.07
2019-03-15T22:27:27.150Z,4.43
2019-03-15T22:30:09.844Z,4.23
2019-03-15T22:32:43.225Z,4.37
2019-03-15T22:35:16.556Z,4.97
2019-03-15T22:37:49.860Z,3.83
2019-03-15T22:40:23.340Z,4.50
2019-03-15T22:42:57.742Z,4.67
2019-03-15T22:45:31.730Z,4.10
2019-03-15T22:48:21.318Z,4.17
2019-03-15T22:50:55.807Z,4.63
2019-03-15T22:53:38.537Z,3.80
2019-03-15T22:56:22.077Z,4.57
2019-03-15T22:58:56.153Z,5.00
2019-03-15T23:01:30.696Z,3.43
2019-03-15T23:04:05.386Z,3.73
2019-03-15T23:06:56.212Z,4.10
2019-03-15T23:09:29.803Z,4.90
2019-03-15T23:12:03.102Z,4.47
2019-03-15T23:14:51.464Z,4.23
2019-03-15T23:17:24.752Z,3.57
2019-03-15T23:19:58.559Z,3.90
2019-03-15T23:22:32.117Z,4.10
2019-03-15T23:25:05.481Z,4.07
2019-03-15T23:27:39.222Z,4.30
2019-03-15T23:30:18.207Z,4.57
2019-03-15T23:33:02.102Z,4.07
2019-03-15T23:35:35.213Z,5.00
2019-03-15T23:38:08.979Z,4.67
2019-03-15T23:40:42.525Z,5.10
2019-03-15T23:43:17.735Z,4.80
2019-03-15T23:45:51.406Z,4.63
2019-03-15T23:48:25.786Z,5.17
2019-03-15T23:51:10.896Z,4.07
2019-03-15T23:53:53.343Z,4.23
2019-03-15T23:56:27.944Z,4.27
2019-03-15T23:59:11.162Z,3.67
